Time;durP1;ratioP1;P1;durP2;ratioP2;P2;SDS_P1;SDS_P2;PMS_P1;PMS_P2;Temp;Humidity;BMP_temperature;BMP_pressure;BME280_temperature;BME280_humidity;BME280_pressure;Samples;Min_cycle;Max_cycle;Signal;HPM_P1;HPM_P2
2022/11/15 00:00:03;;;;;;;;;21.00;20.67;;;;;;;;4979813;28;45346;-64
2022/11/15 00:02:29;;;;;;;;;24.00;20.33;;;;;;;;4979789;28;45337;-64
2022/11/15 00:04:54;;;;;;;;;22.00;18.33;;;;;;;;4978327;28;46710;-64
2022/11/15 00:07:19;;;;;;;;;18.67;17.33;;;;;;;;4978018;28;45421;-64
2022/11/15 00:09:44;;;;;;;;;20.33;20.00;;;;;;;;4976156;28;45481;-64
2022/11/15 00:12:10;;;;;;;;;23.00;20.33;;;;;;;;4979559;28;45325;-64
2022/11/15 00:14:35;;;;;;;;;23.33;19.67;;;;;;;;4979254;28;46533;-64
2022/11/15 00:17:00;;;;;;;;;18.33;17.00;;;;;;;;4979379;28;45392;-64
2022/11/15 00:19:25;;;;;;;;;21.33;17.33;;;;;;;;4979655;28;45240;-64
2022/11/15 00:21:50;;;;;;;;;19.33;17.00;;;;;;;;4979216;28;45247;-64
2022/11/15 00:24:16;;;;;;;;;26.67;23.00;;;;;;;;4979290;28;45560;-64
2022/11/15 00:26:41;;;;;;;;;18.33;14.67;;;;;;;;4965589;28;45362;-64
2022/11/15 00:29:06;;;;;;;;;18.33;16.33;;;;;;;;4960373;28;45441;-64
2022/11/15 00:31:31;;;;;;;;;18.00;14.33;;;;;;;;4979238;28;45433;-64
2022/11/15 00:33:57;;;;;;;;;15.00;14.67;;;;;;;;4979075;28;45413;-64
2022/11/15 00:36:22;;;;;;;;;17.00;14.67;;;;;;;;4976551;28;45377;-64
2022/11/15 00:38:47;;;;;;;;;17.33;16.33;;;;;;;;4979339;28;45452;-64
2022/11/15 00:41:12;;;;;;;;;13.25;11.75;;;;;;;;4979346;28;45454;-64
2022/11/15 00:43:39;;;;;;;;;13.00;8.00;;;;;;;;4979128;28;45554;-64
2022/11/15 00:46:04;;;;;;;;;19.00;12.00;;;;;;;;4978937;28;45326;-64
2022/11/15 00:48:31;;;;;;;;;13.25;10.75;;;;;;;;4979089;28;45367;-64
2022/11/15 00:50:56;;;;;;;;;12.25;12.25;;;;;;;;4977806;28;45758;-64
2022/11/15 00:53:21;;;;;;;;;10.50;8.00;;;;;;;;4978680;28;46161;-64
2022/11/15 00:55:46;;;;;;;;;12.25;9.00;;;;;;;;4978955;28;45390;-64
2022/11/15 00:58:12;;;;;;;;;7.75;7.25;;;;;;;;4978740;28;45475;-64
2022/11/15 01:00:37;;;;;;;;;7.00;6.50;;;;;;;;4979033;28;45435;-64
2022/11/15 01:03:02;;;;;;;;;9.50;8.75;;;;;;;;4978808;28;46692;-64
2022/11/15 01:05:28;;;;;;;;;11.00;6.50;;;;;;;;4978242;28;45232;-64
2022/11/15 01:07:54;;;;;;;;;12.00;5.75;;;;;;;;4977621;28;45225;-64
2022/11/15 01:10:19;;;;;;;;;10.00;9.50;;;;;;;;4977472;28;45477;-64
2022/11/15 01:12:44;;;;;;;;;6.25;6.00;;;;;;;;4978517;28;45349;-64
2022/11/15 01:15:10;;;;;;;;;6.00;6.00;;;;;;;;4978687;28;45469;-64
2022/11/15 01:17:35;;;;;;;;;7.50;5.50;;;;;;;;4978546;28;45554;-64
2022/11/15 01:20:00;;;;;;;;;5.75;4.00;;;;;;;;4979032;28;45421;-64
2022/11/15 01:22:25;;;;;;;;;5.75;4.00;;;;;;;;4978289;28;46008;-64
2022/11/15 01:24:50;;;;;;;;;9.75;4.00;;;;;;;;4978180;28;45469;-64
2022/11/15 01:27:16;;;;;;;;;7.50;4.50;;;;;;;;4977383;28;45556;-64
2022/11/15 01:29:41;;;;;;;;;4.50;4.50;;;;;;;;4978478;28;45366;-64
2022/11/15 01:32:06;;;;;;;;;6.00;4.00;;;;;;;;4978415;28;45697;-64
2022/11/15 01:34:31;;;;;;;;;5.75;5.00;;;;;;;;4978362;28;45374;-64
2022/11/15 01:36:57;;;;;;;;;4.00;3.00;;;;;;;;4978369;28;45330;-64
2022/11/15 01:39:22;;;;;;;;;9.25;4.00;;;;;;;;4978608;28;45603;-64
2022/11/15 01:41:47;;;;;;;;;8.75;5.00;;;;;;;;4977903;28;46526;-64
2022/11/15 01:44:31;;;;;;;;;2.50;2.50;;;;;;;;4977270;28;45292;-64
2022/11/15 01:46:57;;;;;;;;;4.50;3.00;;;;;;;;4978391;28;45449;-64
2022/11/15 01:49:23;;;;;;;;;2.50;2.00;;;;;;;;4978200;28;45311;-64
2022/11/15 01:51:49;;;;;;;;;4.00;3.00;;;;;;;;4977797;28;46354;-64
2022/11/15 01:54:16;;;;;;;;;2.25;2.25;;;;;;;;4978078;28;45340;-64
2022/11/15 01:56:51;;;;;;;;;2.25;2.00;;;;;;;;4977801;28;45446;-64
2022/11/15 01:59:16;;;;;;;;;2.00;2.00;;;;;;;;4978426;28;45169;-64
2022/11/15 02:01:41;;;;;;;;;4.00;2.75;;;;;;;;4975188;28;46446;-64
2022/11/15 02:04:11;;;;;;;;;3.25;2.00;;;;;;;;4976990;28;45477;-64
2022/11/15 02:06:37;;;;;;;;;2.75;2.75;;;;;;;;4965401;28;45528;-64
2022/11/15 02:09:02;;;;;;;;;1.25;1.25;;;;;;;;4977711;28;45562;-64
2022/11/15 02:11:28;;;;;;;;;4.00;3.00;;;;;;;;4977547;28;45314;-64
2022/11/15 02:13:54;;;;;;;;;6.00;3.25;;;;;;;;4977605;28;45434;-64
2022/11/15 02:16:28;;;;;;;;;3.50;3.00;;;;;;;;4977621;28;45430;-64
2022/11/15 02:19:02;;;;;;;;;3.50;3.50;;;;;;;;4978073;28;45446;-64
2022/11/15 02:21:36;;;;;;;;;4.50;4.50;;;;;;;;4977717;28;45681;-64
2022/11/15 02:24:20;;;;;;;;;6.50;4.75;;;;;;;;4976174;28;46012;-64
2022/11/15 02:26:48;;;;;;;;;6.25;6.25;;;;;;;;4977343;28;45307;-64
2022/11/15 02:29:32;;;;;;;;;8.50;6.75;;;;;;;;4976639;28;45329;-64
2022/11/15 02:32:06;;;;;;;;;8.25;7.00;;;;;;;;4977255;28;45428;-64
2022/11/15 02:34:31;;;;;;;;;10.50;8.75;;;;;;;;4977748;28;45433;-64
2022/11/15 02:37:03;;;;;;;;;8.00;7.25;;;;;;;;4977020;28;45488;-64
2022/11/15 02:39:35;;;;;;;;;5.75;5.25;;;;;;;;4976344;28;45327;-64
2022/11/15 02:42:03;;;;;;;;;12.25;9.25;;;;;;;;4977270;28;45493;-64
2022/11/15 02:44:36;;;;;;;;;10.75;6.50;;;;;;;;4975874;28;45781;-64
2022/11/15 02:47:13;;;;;;;;;8.50;8.00;;;;;;;;4977175;28;45442;-64
2022/11/15 02:49:44;;;;;;;;;12.00;8.75;;;;;;;;4977607;28;45343;-64
2022/11/15 02:52:14;;;;;;;;;12.25;8.50;;;;;;;;4976888;28;46227;-64
2022/11/15 02:54:39;;;;;;;;;10.00;8.75;;;;;;;;4976745;28;45476;-64
2022/11/15 02:57:06;;;;;;;;;8.50;8.50;;;;;;;;4976974;28;45243;-64
2022/11/15 02:59:43;;;;;;;;;11.00;9.50;;;;;;;;4977492;28;45485;-64
2022/11/15 03:02:14;;;;;;;;;10.00;8.00;;;;;;;;4975514;28;47858;-64
2022/11/15 03:04:46;;;;;;;;;17.00;10.00;;;;;;;;4977110;28;45496;-64
2022/11/15 03:07:15;;;;;;;;;6.50;6.00;;;;;;;;4977270;28;45529;-64
2022/11/15 03:09:47;;;;;;;;;8.75;6.25;;;;;;;;4977006;28;45390;-64
2022/11/15 03:12:16;;;;;;;;;12.00;9.50;;;;;;;;4976919;28;45243;-64
2022/11/15 03:15:05;;;;;;;;;8.00;6.50;;;;;;;;4977042;28;45385;-64
2022/11/15 03:17:34;;;;;;;;;7.00;7.00;;;;;;;;4926892;28;45472;-63
2022/11/15 03:20:01;;;;;;;;;8.25;6.50;;;;;;;;4917004;28;45377;-64
2022/11/15 03:22:28;;;;;;;;;8.75;6.25;;;;;;;;4936106;28;46231;-64
2022/11/15 03:24:55;;;;;;;;;10.00;8.00;;;;;;;;4935688;28;45563;-64
2022/11/15 03:27:22;;;;;;;;;10.00;8.00;;;;;;;;4936080;28;45424;-64
2022/11/15 03:29:51;;;;;;;;;11.50;7.50;;;;;;;;4935636;28;45428;-64
2022/11/15 03:32:18;;;;;;;;;7.25;7.00;;;;;;;;4933465;28;46840;-64
2022/11/15 03:34:43;;;;;;;;;6.25;6.25;;;;;;;;4935809;28;45414;-64
2022/11/15 03:37:11;;;;;;;;;8.50;7.00;;;;;;;;4936029;28;45579;-64
2022/11/15 03:39:36;;;;;;;;;8.75;8.75;;;;;;;;4935757;28;45434;-64
2022/11/15 03:42:20;;;;;;;;;11.50;7.50;;;;;;;;4937003;28;46202;-63
2022/11/15 03:44:48;;;;;;;;;14.25;12.00;;;;;;;;4938689;28;45301;-64
2022/11/15 03:47:17;;;;;;;;;11.00;7.00;;;;;;;;4939229;28;45384;-63
2022/11/15 03:49:46;;;;;;;;;11.75;7.25;;;;;;;;4921349;28;45446;-63
2022/11/15 03:52:11;;;;;;;;;5.00;5.00;;;;;;;;4919433;28;46218;-64
2022/11/15 03:54:37;;;;;;;;;10.50;7.75;;;;;;;;4941473;28;45361;-64
2022/11/15 03:57:02;;;;;;;;;8.00;7.00;;;;;;;;4978417;28;45442;-64
2022/11/15 03:59:27;;;;;;;;;5.50;5.50;;;;;;;;4980099;28;45381;-64
2022/11/15 04:01:52;;;;;;;;;7.25;7.00;;;;;;;;4961982;28;46639;-63
2022/11/15 04:04:17;;;;;;;;;10.00;6.00;;;;;;;;4978979;28;45311;-64
2022/11/15 04:06:43;;;;;;;;;5.25;5.25;;;;;;;;4979830;28;45259;-64
2022/11/15 04:09:08;;;;;;;;;6.50;6.25;;;;;;;;4979511;28;45212;-63
2022/11/15 04:11:33;;;;;;;;;7.25;6.00;;;;;;;;4979171;28;46910;-64
2022/11/15 04:13:58;;;;;;;;;4.00;4.00;;;;;;;;4979540;28;45395;-63
2022/11/15 04:16:23;;;;;;;;;5.00;5.00;;;;;;;;4979620;28;45426;-63
2022/11/15 04:24:11;;;;;;;;;7.00;5.25;;;;;;;;4979838;28;45326;-64
2022/11/15 04:24:18;;;;;;;;;7.00;3.00;;;;;;;;4978825;28;45537;-63
2022/11/15 04:26:43;;;;;;;;;7.75;5.00;;;;;;;;4979652;28;45366;-63
2022/11/15 04:31:52;;;;;;;;;5.00;5.00;;;;;;;;4978628;28;45583;-63
2022/11/15 04:34:17;;;;;;;;;3.75;3.75;;;;;;;;4988236;28;45449;-63
2022/11/15 04:39:26;;;;;;;;;4.25;4.00;;;;;;;;4982875;28;45559;-63
2022/11/15 04:41:52;;;;;;;;;6.25;3.00;;;;;;;;4979040;28;46248;-64
2022/11/15 04:44:17;;;;;;;;;6.00;5.00;;;;;;;;4978994;28;45462;-64
2022/11/15 04:46:42;;;;;;;;;4.00;3.00;;;;;;;;4979158;28;45394;-63
2022/11/15 04:49:07;;;;;;;;;4.00;4.00;;;;;;;;4979540;28;45757;-63
2022/11/15 04:51:32;;;;;;;;;6.00;3.75;;;;;;;;4978817;28;46181;-64
2022/11/15 04:53:58;;;;;;;;;6.00;4.75;;;;;;;;4978627;28;45462;-63
2022/11/15 04:56:23;;;;;;;;;7.00;5.00;;;;;;;;4977296;28;45375;-63
2022/11/15 04:58:49;;;;;;;;;6.50;4.00;;;;;;;;4978941;28;45537;-64
2022/11/15 05:01:14;;;;;;;;;7.00;4.25;;;;;;;;4978793;28;45550;-63
2022/11/15 05:06:27;;;;;;;;;5.00;4.00;;;;;;;;4978860;28;45359;-64
2022/11/15 05:08:53;;;;;;;;;5.00;5.00;;;;;;;;4979020;28;45330;-64
2022/11/15 05:11:18;;;;;;;;;5.00;5.00;;;;;;;;4960211;28;46508;-63
2022/11/15 05:13:43;;;;;;;;;6.50;6.50;;;;;;;;4977615;28;45168;-63
2022/11/15 05:16:08;;;;;;;;;8.25;6.00;;;;;;;;4978365;28;45434;-63
2022/11/15 05:18:34;;;;;;;;;5.00;5.00;;;;;;;;4978907;28;45397;-63
2022/11/15 05:21:03;;;;;;;;;11.00;5.75;;;;;;;;4978137;28;46632;-64
2022/11/15 05:23:28;;;;;;;;;9.25;7.00;;;;;;;;4978314;28;45318;-64
2022/11/15 05:25:58;;;;;;;;;5.75;5.75;;;;;;;;4978381;28;45370;-63
2022/11/15 05:28:23;;;;;;;;;8.00;8.00;;;;;;;;4978393;28;45422;-63
2022/11/15 05:30:48;;;;;;;;;8.25;6.25;;;;;;;;4977224;28;46520;-63
2022/11/15 05:33:14;;;;;;;;;6.50;5.00;;;;;;;;4977983;28;45558;-63
2022/11/15 05:35:41;;;;;;;;;5.25;5.25;;;;;;;;4978459;28;45496;-63
2022/11/15 05:38:07;;;;;;;;;8.00;6.00;;;;;;;;4978478;28;45540;-63
2022/11/15 05:40:33;;;;;;;;;8.25;5.25;;;;;;;;4978385;28;45644;-64
2022/11/15 05:43:01;;;;;;;;;10.00;8.00;;;;;;;;4978122;28;45254;-64
2022/11/15 05:45:27;;;;;;;;;7.00;7.00;;;;;;;;4977081;28;45488;-63
2022/11/15 05:47:53;;;;;;;;;6.50;4.00;;;;;;;;4978166;28;45342;-63
2022/11/15 05:50:19;;;;;;;;;4.50;4.50;;;;;;;;4977852;28;46680;-63
2022/11/15 05:52:45;;;;;;;;;8.00;8.00;;;;;;;;4978058;28;45665;-63
2022/11/15 05:55:11;;;;;;;;;8.75;5.50;;;;;;;;4977613;28;45462;-63
2022/11/15 05:57:36;;;;;;;;;8.00;8.00;;;;;;;;4977747;28;45506;-63
2022/11/15 06:00:03;;;;;;;;;12.25;9.25;;;;;;;;4977869;28;46318;-63
2022/11/15 06:02:28;;;;;;;;;11.50;11.25;;;;;;;;4976659;28;45589;-63
2022/11/15 06:04:53;;;;;;;;;12.25;8.50;;;;;;;;4976990;28;45341;-63
2022/11/15 06:07:18;;;;;;;;;11.25;11.25;;;;;;;;4977885;28;45541;-63
2022/11/15 06:09:44;;;;;;;;;10.75;10.50;;;;;;;;4977132;28;46284;-63
2022/11/15 06:12:09;;;;;;;;;10.00;10.00;;;;;;;;4977500;28;45461;-63
2022/11/15 06:14:34;;;;;;;;;10.50;9.25;;;;;;;;4977785;28;45196;-63
2022/11/15 06:16:59;;;;;;;;;32.00;30.67;;;;;;;;4977934;28;45493;-63
2022/11/15 06:19:24;;;;;;;;;15.00;13.00;;;;;;;;4976314;28;45422;-63
2022/11/15 06:21:50;;;;;;;;;13.50;13.00;;;;;;;;4977052;28;45414;-63
2022/11/15 06:24:15;;;;;;;;;18.67;15.00;;;;;;;;4977673;28;45430;-63
2022/11/15 06:26:40;;;;;;;;;15.25;13.75;;;;;;;;4977582;28;45455;-63
2022/11/15 06:29:05;;;;;;;;;12.00;11.50;;;;;;;;4976880;28;46599;-63
2022/11/15 06:31:30;;;;;;;;;16.25;14.00;;;;;;;;4977230;28;45299;-63
2022/11/15 06:33:56;;;;;;;;;17.25;13.25;;;;;;;;4975687;28;45386;-63
2022/11/15 06:36:21;;;;;;;;;18.00;15.00;;;;;;;;4977637;28;45486;-63
2022/11/15 06:38:46;;;;;;;;;14.75;13.00;;;;;;;;4976943;28;47444;-63
2022/11/15 06:41:12;;;;;;;;;24.00;19.67;;;;;;;;4977208;28;45386;-63
2022/11/15 06:43:39;;;;;;;;;16.25;14.00;;;;;;;;4977495;28;45438;-63
2022/11/15 06:46:05;;;;;;;;;15.00;14.00;;;;;;;;4977608;28;45326;-63
2022/11/15 06:48:31;;;;;;;;;22.67;16.67;;;;;;;;4977022;28;46245;-64
2022/11/15 06:50:58;;;;;;;;;16.25;12.25;;;;;;;;4976034;28;46132;-64
2022/11/15 06:53:23;;;;;;;;;17.75;12.25;;;;;;;;4976905;28;45497;-64
2022/11/15 06:55:49;;;;;;;;;14.00;13.00;;;;;;;;4976802;28;45558;-63
2022/11/15 06:58:14;;;;;;;;;13.00;10.75;;;;;;;;4976792;28;45408;-64
2022/11/15 07:00:39;;;;;;;;;17.00;14.67;;;;;;;;4976689;28;45454;-64
2022/11/15 07:03:05;;;;;;;;;12.25;11.25;;;;;;;;4977007;28;45388;-64
2022/11/15 07:05:30;;;;;;;;;16.00;16.00;;;;;;;;4977138;28;45394;-64
2022/11/15 07:07:56;;;;;;;;;24.00;19.33;;;;;;;;4975507;28;45419;-64
2022/11/15 07:10:24;;;;;;;;;19.75;13.00;;;;;;;;4972087;28;45450;-65
2022/11/15 07:12:49;;;;;;;;;16.00;14.50;;;;;;;;4974871;28;45528;-64
2022/11/15 07:15:15;;;;;;;;;13.75;12.50;;;;;;;;4976772;28;45212;-65
2022/11/15 07:17:41;;;;;;;;;13.75;13.50;;;;;;;;4980290;28;46126;-64
2022/11/15 07:20:06;;;;;;;;;14.00;12.00;;;;;;;;4979388;28;45446;-64
2022/11/15 07:22:32;;;;;;;;;15.25;14.00;;;;;;;;4979441;28;45253;-65
2022/11/15 07:24:57;;;;;;;;;16.00;12.25;;;;;;;;4979469;28;46538;-64
2022/11/15 07:27:22;;;;;;;;;15.75;11.00;;;;;;;;4979731;28;45475;-65
2022/11/15 07:29:47;;;;;;;;;13.50;11.50;;;;;;;;4978524;28;45424;-66
2022/11/15 07:32:12;;;;;;;;;12.75;10.00;;;;;;;;4984379;28;45453;-65
2022/11/15 07:34:38;;;;;;;;;19.67;14.67;;;;;;;;4978775;28;45612;-65
2022/11/15 07:37:03;;;;;;;;;13.00;11.00;;;;;;;;4978812;28;45474;-65
2022/11/15 07:39:28;;;;;;;;;7.75;7.75;;;;;;;;4978749;28;45856;-65
2022/11/15 07:42:52;;;;;;;;;11.75;11.75;;;;;;;;4979781;28;45358;-70
2022/11/15 07:44:38;;;;;;;;;7.00;5.25;;;;;;;;4980167;28;45506;-71
2022/11/15 07:47:04;;;;;;;;;11.00;5.50;;;;;;;;4979777;28;46599;-72
2022/11/15 07:49:29;;;;;;;;;10.00;6.00;;;;;;;;4980047;28;45370;-70
2022/11/15 07:51:54;;;;;;;;;8.00;7.00;;;;;;;;4979747;28;45314;-69
2022/11/15 07:54:19;;;;;;;;;5.50;5.00;;;;;;;;4980192;28;45389;-69
2022/11/15 07:56:44;;;;;;;;;12.50;10.75;;;;;;;;4979879;28;45486;-69
2022/11/15 07:59:11;;;;;;;;;5.50;5.00;;;;;;;;4979110;28;45497;-69
2022/11/15 08:01:36;;;;;;;;;9.25;5.75;;;;;;;;4979960;28;45290;-69
2022/11/15 08:04:01;;;;;;;;;5.50;4.00;;;;;;;;4979918;28;45464;-69
2022/11/15 08:06:26;;;;;;;;;5.75;3.00;;;;;;;;4979453;28;45436;-70
2022/11/15 08:08:52;;;;;;;;;9.50;9.25;;;;;;;;4979677;28;45586;-69
2022/11/15 08:11:17;;;;;;;;;7.25;6.75;;;;;;;;4979571;28;45538;-70
2022/11/15 08:13:42;;;;;;;;;6.25;5.00;;;;;;;;4979730;28;45399;-70
2022/11/15 08:16:08;;;;;;;;;6.25;3.50;;;;;;;;4979377;28;45332;-69
2022/11/15 08:18:34;;;;;;;;;5.75;3.75;;;;;;;;4979328;28;45443;-70
2022/11/15 08:21:00;;;;;;;;;5.75;3.00;;;;;;;;4979692;28;45416;-69
2022/11/15 08:23:25;;;;;;;;;2.50;2.50;;;;;;;;4979474;28;45402;-69
2022/11/15 08:25:50;;;;;;;;;6.50;3.25;;;;;;;;4979252;28;46353;-70
2022/11/15 08:28:16;;;;;;;;;4.25;2.75;;;;;;;;4978375;28;45362;-70
2022/11/15 08:30:42;;;;;;;;;5.00;2.00;;;;;;;;4979322;28;45795;-70
2022/11/15 08:33:10;;;;;;;;;2.00;2.00;;;;;;;;4979486;28;45362;-69
2022/11/15 08:35:35;;;;;;;;;4.00;4.00;;;;;;;;4979118;28;46807;-69
2022/11/15 08:38:00;;;;;;;;;4.75;3.00;;;;;;;;4979268;28;45464;-69
2022/11/15 08:40:26;;;;;;;;;2.00;2.00;;;;;;;;4979147;28;45351;-69
2022/11/15 08:42:52;;;;;;;;;5.75;3.00;;;;;;;;4981170;28;45545;-69
2022/11/15 08:45:17;;;;;;;;;4.75;2.25;;;;;;;;4978986;28;46349;-69
2022/11/15 08:47:42;;;;;;;;;3.00;3.00;;;;;;;;4982578;28;45445;-68
2022/11/15 08:50:08;;;;;;;;;3.00;2.00;;;;;;;;4980070;28;45437;-68
2022/11/15 08:52:33;;;;;;;;;4.00;2.75;;;;;;;;4978722;28;45532;-68
2022/11/15 08:54:58;;;;;;;;;1.75;1.00;;;;;;;;4978386;28;46301;-68
2022/11/15 08:57:24;;;;;;;;;2.00;2.00;;;;;;;;4978654;28;45358;-70
2022/11/15 08:59:49;;;;;;;;;3.00;1.00;;;;;;;;4978507;28;45353;-70
2022/11/15 09:02:15;;;;;;;;;3.50;3.00;;;;;;;;4978767;28;45569;-70
2022/11/15 09:04:41;;;;;;;;;1.00;1.00;;;;;;;;4978234;28;45457;-69
2022/11/15 09:07:06;;;;;;;;;5.00;4.50;;;;;;;;4978356;28;45767;-70
2022/11/15 09:09:32;;;;;;;;;1.75;1.00;;;;;;;;4978698;28;45390;-70
2022/11/15 09:11:57;;;;;;;;;2.75;1.00;;;;;;;;4978512;28;45458;-72
2022/11/15 09:14:22;;;;;;;;;3.50;2.00;;;;;;;;4978194;28;45593;-70
2022/11/15 09:16:47;;;;;;;;;4.25;2.25;;;;;;;;4978415;28;45304;-70
2022/11/15 09:19:14;;;;;;;;;2.00;2.00;;;;;;;;4978336;28;45298;-68
2022/11/15 09:21:39;;;;;;;;;2.00;2.00;;;;;;;;4978628;28;45342;-68
2022/11/15 09:24:05;;;;;;;;;2.00;2.00;;;;;;;;4978166;28;45867;-68
2022/11/15 09:26:30;;;;;;;;;3.00;2.00;;;;;;;;4978269;28;45402;-70
2022/11/15 09:28:55;;;;;;;;;1.00;1.00;;;;;;;;4978006;28;45492;-69
2022/11/15 09:31:20;;;;;;;;;3.00;1.00;;;;;;;;4977902;28;45287;-70
2022/11/15 09:33:46;;;;;;;;;3.75;2.25;;;;;;;;4978093;28;45611;-69
2022/11/15 09:36:12;;;;;;;;;2.25;1.50;;;;;;;;4977982;28;45540;-69
2022/11/15 09:38:37;;;;;;;;;2.75;1.00;;;;;;;;4978113;28;45416;-70
2022/11/15 09:41:15;;;;;;;;;2.25;2.00;;;;;;;;4977907;28;45406;-70
2022/11/15 09:44:13;;;;;;;;;2.50;1.50;;;;;;;;4977586;28;45352;-69
2022/11/15 09:46:41;;;;;;;;;3.20;2.00;;;;;;;;4898690;29;45587;-69
2022/11/15 09:49:08;;;;;;;;;2.25;2.00;;;;;;;;4898952;28;45448;-70
2022/11/15 09:51:35;;;;;;;;;0.00;0.00;;;;;;;;4898913;29;45351;-70
2022/11/15 09:54:08;;;;;;;;;2.50;2.50;;;;;;;;4898242;29;45439;-69
2022/11/15 09:56:40;;;;;;;;;1.75;1.75;;;;;;;;4898499;29;45485;-70
2022/11/15 09:59:24;;;;;;;;;2.50;1.00;;;;;;;;4898713;29;45877;-69
2022/11/15 10:01:49;;;;;;;;;4.00;3.00;;;;;;;;4898706;29;45471;-70
2022/11/15 10:04:14;;;;;;;;;4.00;1.00;;;;;;;;4898144;29;45490;-69
2022/11/15 10:06:43;;;;;;;;;3.75;1.00;;;;;;;;4898396;29;45348;-69
2022/11/15 10:09:23;;;;;;;;;1.00;1.00;;;;;;;;4898664;29;45434;-70
2022/11/15 10:11:49;;;;;;;;;1.50;1.50;;;;;;;;4898585;29;45343;-70
2022/11/15 10:14:16;;;;;;;;;3.50;1.00;;;;;;;;4898186;29;46345;-69
2022/11/15 10:16:51;;;;;;;;;2.75;1.00;;;;;;;;4898165;29;45415;-70
2022/11/15 10:19:16;;;;;;;;;1.00;1.00;;;;;;;;4898305;29;45446;-69
2022/11/15 10:21:53;;;;;;;;;2.50;2.50;;;;;;;;4920444;28;45364;-69
2022/11/15 10:24:23;;;;;;;;;2.50;2.50;;;;;;;;4977427;28;45531;-70
2022/11/15 10:26:49;;;;;;;;;3.75;2.25;;;;;;;;4977220;28;45391;-70
2022/11/15 10:29:22;;;;;;;;;2.25;2.00;;;;;;;;4977200;28;45450;-70
2022/11/15 10:31:47;;;;;;;;;4.00;2.00;;;;;;;;4977687;28;45397;-70
2022/11/15 10:34:20;;;;;;;;;5.00;2.00;;;;;;;;4977067;28;46481;-69
2022/11/15 10:36:46;;;;;;;;;6.00;4.50;;;;;;;;4977165;28;45416;-70
2022/11/15 10:39:12;;;;;;;;;1.50;1.50;;;;;;;;4977615;28;45391;-70
2022/11/15 10:41:38;;;;;;;;;3.00;1.50;;;;;;;;4977426;28;45284;-70
2022/11/15 10:44:07;;;;;;;;;2.75;2.75;;;;;;;;4976510;28;47518;-67
2022/11/15 10:46:33;;;;;;;;;3.00;2.50;;;;;;;;4976739;28;45432;-68
2022/11/15 10:49:17;;;;;;;;;2.00;2.00;;;;;;;;4977322;28;45416;-67
2022/11/15 10:51:51;;;;;;;;;4.50;1.75;;;;;;;;4979661;28;45418;-67
2022/11/15 10:54:21;;;;;;;;;1.75;1.25;;;;;;;;4984683;28;45588;-66
2022/11/15 10:56:48;;;;;;;;;5.50;1.00;;;;;;;;4991549;28;45168;-63
2022/11/15 10:59:16;;;;;;;;;4.50;2.50;;;;;;;;5000181;28;45432;-66
2022/11/15 11:01:47;;;;;;;;;2.00;2.00;;;;;;;;5000742;28;45458;-67
2022/11/15 11:04:13;;;;;;;;;2.00;1.25;;;;;;;;5000188;28;46243;-65
2022/11/15 11:06:49;;;;;;;;;5.00;3.75;;;;;;;;5000165;28;45412;-66
2022/11/15 11:09:23;;;;;;;;;4.50;3.00;;;;;;;;5000268;28;45337;-64
2022/11/15 11:11:52;;;;;;;;;2.00;2.00;;;;;;;;5000360;28;45271;-65
2022/11/15 11:14:37;;;;;;;;;2.00;2.00;;;;;;;;4999776;28;45597;-65
2022/11/15 11:17:02;;;;;;;;;2.25;1.75;;;;;;;;4999558;28;45495;-65
2022/11/15 11:19:37;;;;;;;;;1.75;1.50;;;;;;;;5000299;28;45429;-65
2022/11/15 11:22:05;;;;;;;;;2.00;1.00;;;;;;;;5000261;28;45334;-65
2022/11/15 11:24:43;;;;;;;;;4.50;2.25;;;;;;;;4999902;28;46191;-65
2022/11/15 11:27:11;;;;;;;;;2.60;1.00;;;;;;;;4999913;28;45438;-65
2022/11/15 11:29:39;;;;;;;;;6.50;4.75;;;;;;;;4999887;28;45460;-65
2022/11/15 11:32:27;;;;;;;;;2.00;2.00;;;;;;;;5000032;28;45398;-63
2022/11/15 11:35:06;;;;;;;;;2.50;1.00;;;;;;;;4999677;28;46278;-65
2022/11/15 11:37:31;;;;;;;;;2.00;2.00;;;;;;;;4999591;28;45365;-66
2022/11/15 11:40:12;;;;;;;;;4.00;3.25;;;;;;;;5000079;28;45429;-63
2022/11/15 11:42:59;;;;;;;;;4.25;2.25;;;;;;;;4999942;28;45523;-62
2022/11/15 11:45:24;;;;;;;;;2.25;2.25;;;;;;;;4999192;28;47564;-62
2022/11/15 11:47:55;;;;;;;;;4.75;2.25;;;;;;;;4999538;28;45156;-64
2022/11/15 11:50:23;;;;;;;;;2.00;2.00;;;;;;;;4999797;28;45388;-63
2022/11/15 11:52:48;;;;;;;;;4.50;3.00;;;;;;;;4998099;28;45711;-65
2022/11/15 11:55:20;;;;;;;;;4.25;2.50;;;;;;;;4993415;28;46949;-64
2022/11/15 11:58:03;;;;;;;;;5.50;4.00;;;;;;;;4984809;28;45476;-63
2022/11/15 12:00:33;;;;;;;;;7.50;6.50;;;;;;;;4979609;28;45426;-64
2022/11/15 12:03:01;;;;;;;;;11.50;7.75;;;;;;;;4978412;28;45620;-64
2022/11/15 12:05:39;;;;;;;;;4.25;3.00;;;;;;;;4979300;28;46479;-65
2022/11/15 12:08:22;;;;;;;;;2.25;2.00;;;;;;;;4979096;28;45778;-64
2022/11/15 12:10:50;;;;;;;;;3.75;2.00;;;;;;;;4979441;28;45437;-65
2022/11/15 12:13:18;;;;;;;;;3.00;2.00;;;;;;;;4979383;28;45513;-65
2022/11/15 12:15:47;;;;;;;;;4.00;4.00;;;;;;;;4978997;28;46723;-64
2022/11/15 12:18:14;;;;;;;;;5.25;2.50;;;;;;;;4979351;28;45477;-63
2022/11/15 12:20:42;;;;;;;;;3.00;3.00;;;;;;;;4979511;28;45344;-64
2022/11/15 12:23:20;;;;;;;;;2.75;2.75;;;;;;;;4979460;28;45353;-64
2022/11/15 12:25:58;;;;;;;;;3.00;3.00;;;;;;;;4979143;28;45438;-64
2022/11/15 12:28:38;;;;;;;;;13.00;13.00;;;;;;;;4979242;28;45445;-65
2022/11/15 12:31:10;;;;;;;;;7.00;5.00;;;;;;;;4978711;28;45523;-64
2022/11/15 12:33:35;;;;;;;;;5.00;3.50;;;;;;;;4979230;28;45413;-64
2022/11/15 12:36:02;;;;;;;;;4.00;3.00;;;;;;;;4978944;28;47244;-63
2022/11/15 12:38:46;;;;;;;;;4.80;3.00;;;;;;;;4978926;28;45390;-66
2022/11/15 12:41:13;;;;;;;;;2.75;2.75;;;;;;;;4979143;28;45225;-66
2022/11/15 12:43:39;;;;;;;;;3.75;3.75;;;;;;;;4979398;28;45327;-64
2022/11/15 12:46:11;;;;;;;;;3.00;2.75;;;;;;;;4978763;28;46075;-64
2022/11/15 12:48:36;;;;;;;;;2.00;2.00;;;;;;;;4978969;28;45338;-67
2022/11/15 12:51:01;;;;;;;;;4.00;4.00;;;;;;;;4979212;28;45395;-67
2022/11/15 12:53:30;;;;;;;;;3.50;3.50;;;;;;;;4979225;28;45362;-67
2022/11/15 12:56:01;;;;;;;;;2.50;2.50;;;;;;;;4978691;28;46397;-64
2022/11/15 12:58:28;;;;;;;;;4.75;4.50;;;;;;;;4978912;28;45455;-65
2022/11/15 13:00:54;;;;;;;;;3.00;3.00;;;;;;;;4978695;28;45414;-65
2022/11/15 13:03:21;;;;;;;;;1.00;1.00;;;;;;;;4979351;28;45394;-66
2022/11/15 13:05:53;;;;;;;;;4.00;3.25;;;;;;;;4978921;28;46106;-66
2022/11/15 13:08:56;;;;;;;;;5.00;2.00;;;;;;;;4978649;28;45271;-65
2022/11/15 13:11:40;;;;;;;;;4.00;4.00;;;;;;;;4899634;29;45539;-66
2022/11/15 13:14:25;;;;;;;;;4.75;3.00;;;;;;;;4899207;29;45419;-65
2022/11/15 13:16:57;;;;;;;;;4.00;4.00;;;;;;;;4899168;29;45490;-64
2022/11/15 13:19:24;;;;;;;;;3.75;3.75;;;;;;;;4899409;29;45397;-64
2022/11/15 13:24:33;;;;;;;;;29.33;27.33;;;;;;;;4899332;29;45573;-65
2022/11/15 13:26:58;;;;;;;;;4.00;4.00;;;;;;;;4899253;29;45493;-66
2022/11/15 13:29:25;;;;;;;;;7.75;6.25;;;;;;;;4899551;29;45337;-65
2022/11/15 13:31:50;;;;;;;;;2.50;2.50;;;;;;;;4899143;29;45493;-65
2022/11/15 13:34:19;;;;;;;;;5.00;3.75;;;;;;;;4899316;29;45624;-65
2022/11/15 13:36:46;;;;;;;;;4.50;4.50;;;;;;;;4899187;29;46858;-66
2022/11/15 13:39:14;;;;;;;;;6.00;5.00;;;;;;;;4898967;29;45526;-66
2022/11/15 13:41:47;;;;;;;;;4.00;3.50;;;;;;;;4923703;28;45446;-66
2022/11/15 13:44:19;;;;;;;;;3.00;3.00;;;;;;;;4978551;28;45402;-66
2022/11/15 13:46:44;;;;;;;;;6.25;5.00;;;;;;;;4977877;28;45382;-67
2022/11/15 13:49:11;;;;;;;;;5.00;2.25;;;;;;;;4978172;28;45418;-67
2022/11/15 13:51:39;;;;;;;;;3.00;3.00;;;;;;;;4978167;28;45461;-66
2022/11/15 13:54:19;;;;;;;;;5.00;4.00;;;;;;;;4978196;28;45439;-64
2022/11/15 13:56:47;;;;;;;;;4.75;2.50;;;;;;;;4977964;28;46164;-66
2022/11/15 13:59:23;;;;;;;;;4.25;4.00;;;;;;;;4978054;28;45425;-66
2022/11/15 14:01:49;;;;;;;;;5.50;4.75;;;;;;;;4978027;28;45453;-65
2022/11/15 14:04:18;;;;;;;;;5.50;5.50;;;;;;;;4978158;28;45220;-63
2022/11/15 14:06:45;;;;;;;;;3.00;3.00;;;;;;;;4977844;28;47517;-65
2022/11/15 14:09:10;;;;;;;;;3.50;2.50;;;;;;;;4977751;28;45229;-64
2022/11/15 14:11:36;;;;;;;;;4.00;3.00;;;;;;;;4977681;28;45409;-64
2022/11/15 14:14:11;;;;;;;;;5.00;5.00;;;;;;;;4978139;28;45424;-65
2022/11/15 14:16:41;;;;;;;;;4.75;4.00;;;;;;;;4977538;28;46500;-64
2022/11/15 14:19:09;;;;;;;;;3.75;3.75;;;;;;;;4977654;28;45374;-64
2022/11/15 14:21:35;;;;;;;;;3.25;3.25;;;;;;;;4977882;28;45420;-65
2022/11/15 14:24:15;;;;;;;;;5.75;3.75;;;;;;;;4977731;28;45480;-66
2022/11/15 14:26:42;;;;;;;;;3.50;3.50;;;;;;;;4976443;28;47155;-65
2022/11/15 14:29:26;;;;;;;;;8.50;6.00;;;;;;;;4977482;28;45368;-66
2022/11/15 14:31:52;;;;;;;;;4.00;4.00;;;;;;;;4977500;28;45403;-66
2022/11/15 14:34:18;;;;;;;;;4.25;4.25;;;;;;;;4977700;28;45407;-66
2022/11/15 14:36:43;;;;;;;;;4.00;3.50;;;;;;;;4977278;28;45423;-66
2022/11/15 14:39:09;;;;;;;;;4.00;4.00;;;;;;;;4977539;28;45385;-66
2022/11/15 14:41:37;;;;;;;;;5.75;5.75;;;;;;;;4977496;28;45337;-67
2022/11/15 14:44:03;;;;;;;;;5.50;4.00;;;;;;;;4977633;28;45496;-66
2022/11/15 14:46:28;;;;;;;;;6.75;5.25;;;;;;;;4977210;28;46436;-66
2022/11/15 14:48:54;;;;;;;;;4.25;4.00;;;;;;;;4976991;28;45464;-66
2022/11/15 14:51:19;;;;;;;;;5.25;4.00;;;;;;;;4977524;28;45373;-66
2022/11/15 14:53:45;;;;;;;;;4.25;4.25;;;;;;;;4977153;28;45576;-66
2022/11/15 14:56:10;;;;;;;;;8.25;8.25;;;;;;;;4977227;28;46468;-66